createdAt,value
2018-11-21T00:02:49.007Z,24.90
2018-11-21T00:07:51.745Z,20.10
2018-11-21T00:12:56.160Z,20.43
2018-11-21T00:17:58.914Z,22.27
2018-11-21T00:23:01.570Z,22.13
2018-11-21T00:28:04.418Z,19.60
2018-11-21T00:33:07.042Z,19.20
2018-11-21T00:38:09.679Z,19.20
2018-11-21T00:43:12.321Z,20.70
2018-11-21T00:48:14.964Z,20.33
2018-11-21T00:53:17.620Z,19.10
2018-11-21T00:58:20.242Z,18.67
2018-11-21T01:03:22.884Z,18.70
2018-11-21T01:08:25.543Z,20.07
2018-11-21T01:13:28.154Z,20.87
2018-11-21T01:18:30.846Z,21.33
2018-11-21T01:23:33.502Z,19.23
2018-11-21T01:28:36.136Z,20.27
2018-11-21T01:33:38.759Z,20.93
2018-11-21T01:38:41.471Z,19.63
2018-11-21T01:43:44.100Z,19.90
2018-11-21T01:48:46.727Z,16.40
2018-11-21T01:53:49.342Z,20.00
2018-11-21T01:58:52.014Z,17.80
2018-11-21T02:03:54.619Z,15.77
2018-11-21T02:08:57.282Z,17.73
2018-11-21T02:13:59.930Z,17.67
2018-11-21T02:19:02.757Z,17.87
2018-11-21T02:24:05.394Z,14.70
2018-11-21T02:29:08.031Z,18.53
2018-11-21T02:34:10.645Z,29.33
2018-11-21T02:39:13.355Z,14.43
2018-11-21T02:44:15.989Z,13.33
2018-11-21T02:49:18.594Z,16.43
2018-11-21T02:54:21.252Z,17.17
2018-11-21T02:59:23.890Z,15.13
2018-11-21T03:04:26.935Z,13.67
2018-11-21T03:09:29.612Z,16.97
2018-11-21T03:14:32.238Z,13.70
2018-11-21T03:19:34.866Z,16.03
2018-11-21T03:24:37.690Z,16.10
2018-11-21T03:29:40.287Z,16.53
2018-11-21T03:34:42.924Z,15.87
2018-11-21T03:39:45.579Z,20.47
2018-11-21T03:44:48.200Z,16.80
2018-11-21T03:49:50.850Z,15.83
2018-11-21T03:54:53.501Z,15.73
2018-11-21T03:59:56.138Z,14.67
2018-11-21T04:04:58.747Z,15.50
2018-11-21T04:10:01.570Z,16.00
2018-11-21T04:15:06.680Z,17.77
2018-11-21T04:20:09.512Z,17.50
2018-11-21T04:25:12.101Z,14.43
2018-11-21T04:30:14.721Z,24.27
2018-11-21T04:35:17.446Z,22.23
2018-11-21T04:40:20.066Z,23.13
2018-11-21T04:45:22.695Z,24.73
2018-11-21T04:50:25.322Z,22.33
2018-11-21T04:55:27.961Z,21.30
2018-11-21T05:00:30.563Z,21.23
2018-11-21T05:05:33.176Z,23.20
2018-11-21T05:10:35.796Z,21.50
2018-11-21T05:15:38.444Z,25.57
2018-11-21T05:20:41.118Z,26.97
2018-11-21T05:25:43.824Z,26.57
2018-11-21T05:30:46.524Z,27.57
2018-11-21T05:35:49.179Z,28.47
2018-11-21T05:40:51.845Z,21.10
2018-11-21T05:45:56.391Z,24.20
2018-11-21T05:50:59.044Z,22.67
2018-11-21T05:56:01.750Z,21.73
2018-11-21T06:01:04.643Z,27.57
2018-11-21T06:06:10.101Z,26.80
2018-11-21T06:11:09.907Z,24.83
2018-11-21T06:16:12.541Z,25.30
2018-11-21T06:21:15.212Z,29.90
2018-11-21T06:26:17.815Z,29.33
2018-11-21T06:31:20.710Z,29.73
2018-11-21T06:36:23.369Z,26.97
2018-11-21T06:41:25.996Z,32.03
2018-11-21T06:46:28.751Z,33.13
2018-11-21T06:51:35.220Z,27.77
2018-11-21T06:56:34.086Z,23.67
2018-11-21T07:01:37.108Z,29.33
2018-11-21T07:06:39.721Z,26.80
2018-11-21T07:11:43.367Z,28.27
2018-11-21T07:16:46.093Z,27.03
2018-11-21T07:21:50.110Z,27.23
2018-11-21T07:26:52.788Z,29.57
2018-11-21T07:31:55.496Z,29.67
2018-11-21T07:36:58.172Z,26.10
2018-11-21T07:42:00.808Z,26.43
2018-11-21T07:47:03.440Z,27.63
2018-11-21T07:52:06.131Z,32.90
2018-11-21T07:57:33.398Z,33.67
2018-11-21T08:02:38.117Z,28.40
2018-11-21T08:07:48.998Z,45.53
2018-11-21T08:13:26.177Z,33.27
2018-11-21T08:18:39.649Z,41.47
2018-11-21T08:24:01.832Z,37.73
2018-11-21T08:29:04.530Z,35.97
2018-11-21T08:34:07.180Z,35.17
2018-11-21T08:39:10.174Z,34.73
2018-11-21T08:44:12.892Z,30.57
2018-11-21T08:49:15.559Z,38.67
2018-11-21T08:54:37.713Z,49.10
2018-11-21T08:59:59.865Z,30.07
2018-11-21T09:05:22.050Z,32.83
2018-11-21T09:10:44.229Z,27.83
2018-11-21T09:16:06.389Z,36.87
2018-11-21T09:21:28.579Z,26.77
2018-11-21T09:26:50.749Z,29.90
2018-11-21T09:32:12.903Z,30.07
2018-11-21T09:37:35.083Z,29.77
2018-11-21T09:42:57.262Z,26.37
2018-11-21T09:48:19.410Z,25.87
2018-11-21T09:53:41.580Z,31.23
2018-11-21T09:59:03.819Z,24.20
2018-11-21T10:04:25.976Z,26.77
2018-11-21T10:09:49.530Z,28.70
2018-11-21T10:15:11.695Z,27.27
2018-11-21T10:20:33.867Z,25.23
2018-11-21T10:25:56.033Z,29.80
2018-11-21T10:31:18.204Z,27.17
2018-11-21T10:36:40.367Z,24.10
2018-11-21T10:42:02.545Z,27.93
2018-11-21T10:47:24.715Z,27.63
2018-11-21T10:52:46.898Z,25.53
2018-11-21T10:58:09.053Z,31.23
2018-11-21T11:03:36.466Z,29.27
2018-11-21T11:09:18.200Z,32.97
2018-11-21T11:14:59.910Z,32.30
2018-11-21T11:20:41.612Z,28.07
2018-11-21T11:26:23.361Z,33.80
2018-11-21T11:32:05.245Z,32.47
2018-11-21T11:37:46.950Z,29.43
2018-11-21T11:43:28.690Z,30.30
2018-11-21T11:49:10.398Z,32.10
2018-11-21T11:54:52.119Z,32.03
2018-11-21T12:00:33.812Z,31.13
2018-11-21T12:06:15.580Z,36.97
2018-11-21T12:11:57.306Z,34.43
2018-11-21T12:17:39.003Z,30.93
2018-11-21T12:23:12.811Z,39.40
2018-11-21T12:28:54.520Z,40.87
2018-11-21T12:34:36.235Z,38.83
2018-11-21T12:40:17.951Z,40.20
2018-11-21T12:45:59.669Z,35.77
2018-11-21T12:51:41.376Z,39.43
2018-11-21T12:57:23.101Z,40.47
2018-11-21T13:03:04.825Z,38.67
2018-11-21T13:08:46.522Z,40.93
2018-11-21T13:14:28.227Z,42.43
2018-11-21T13:20:09.926Z,39.53
2018-11-21T13:25:51.678Z,31.23
2018-11-21T13:31:33.389Z,35.30
2018-11-21T13:37:15.116Z,35.40
2018-11-21T13:42:56.836Z,32.30
2018-11-21T13:48:38.538Z,36.00
2018-11-21T13:54:20.248Z,34.97
2018-11-21T13:59:42.482Z,36.80
2018-11-21T14:05:06.898Z,38.40
2018-11-21T14:10:29.114Z,38.43
2018-11-21T14:15:51.278Z,42.60
2018-11-21T14:21:13.475Z,32.57
2018-11-21T14:26:35.657Z,39.67
2018-11-21T14:31:57.845Z,35.03
2018-11-21T14:37:20.093Z,39.63
2018-11-21T14:42:42.525Z,39.37
2018-11-21T14:48:05.109Z,34.90
2018-11-21T14:53:27.320Z,33.00
2018-11-21T14:58:49.514Z,36.20
2018-11-21T15:04:11.707Z,33.00
2018-11-21T15:09:33.939Z,31.17
2018-11-21T15:14:56.145Z,35.63
2018-11-21T15:20:20.302Z,32.93
2018-11-21T15:25:42.481Z,33.30
2018-11-21T15:31:04.921Z,35.03
2018-11-21T15:36:27.138Z,35.10
2018-11-21T15:41:49.290Z,30.50
2018-11-21T15:47:11.496Z,33.00
2018-11-21T15:52:34.549Z,33.10
2018-11-21T15:57:56.826Z,33.20
2018-11-21T16:03:19.032Z,29.00
2018-11-21T16:08:41.253Z,29.57
2018-11-21T16:14:03.791Z,30.33
2018-11-21T16:19:25.979Z,32.83
2018-11-21T16:24:48.187Z,34.13
2018-11-21T16:30:12.577Z,33.33
2018-11-21T16:35:34.808Z,35.63
2018-11-21T16:40:57.019Z,28.63
2018-11-21T16:46:19.240Z,35.03
2018-11-21T16:51:41.504Z,43.57
2018-11-21T16:57:03.706Z,41.63
2018-11-21T17:02:25.902Z,46.30
2018-11-21T17:07:48.282Z,28.70
2018-11-21T17:13:10.483Z,31.43
2018-11-21T17:18:32.699Z,35.10
2018-11-21T17:23:54.923Z,34.20
2018-11-21T17:29:17.105Z,36.47
2018-11-21T17:34:39.367Z,44.73
2018-11-21T17:40:01.604Z,32.70
2018-11-21T17:45:05.824Z,33.70
2018-11-21T17:50:13.883Z,34.70
2018-11-21T17:55:18.717Z,35.17
2018-11-21T18:00:23.032Z,37.60
2018-11-21T18:05:31.380Z,40.10
2018-11-21T18:10:35.706Z,36.07
2018-11-21T18:15:38.439Z,33.93
2018-11-21T18:20:41.274Z,37.70
2018-11-21T18:25:45.354Z,42.77
2018-11-21T18:30:48.140Z,43.10
2018-11-21T18:35:50.849Z,45.03
2018-11-21T18:40:53.727Z,40.47
2018-11-21T18:45:56.512Z,49.60
2018-11-21T18:50:59.319Z,44.07
2018-11-21T18:56:45.529Z,42.73
2018-11-21T19:01:47.532Z,42.93
2018-11-21T19:06:50.441Z,39.17
2018-11-21T19:11:53.222Z,51.53
2018-11-21T19:16:56.068Z,43.10
2018-11-21T19:21:58.831Z,41.83
2018-11-21T19:27:01.783Z,48.97
2018-11-21T19:32:04.876Z,47.63
2018-11-21T19:37:07.614Z,44.50
2018-11-21T19:42:10.543Z,46.77
2018-11-21T19:47:13.414Z,42.10
2018-11-21T19:52:16.160Z,37.20
2018-11-21T19:57:18.885Z,42.53
2018-11-21T20:02:21.820Z,35.77
2018-11-21T20:07:24.640Z,40.93
2018-11-21T20:12:27.362Z,41.87
2018-11-21T20:17:30.208Z,41.87
2018-11-21T20:22:33.048Z,44.17
2018-11-21T20:27:35.785Z,45.30
2018-11-21T20:32:38.812Z,42.27
2018-11-21T20:37:42.194Z,42.33
2018-11-21T20:42:45.510Z,38.57
2018-11-21T20:47:49.455Z,43.43
2018-11-21T20:52:52.625Z,36.07
2018-11-21T20:57:55.449Z,44.13
2018-11-21T21:02:58.189Z,43.50
2018-11-21T21:08:00.964Z,50.57
2018-11-21T21:13:03.709Z,45.67
2018-11-21T21:18:06.443Z,41.50
2018-11-21T21:23:09.119Z,45.23
2018-11-21T21:28:11.850Z,43.83
2018-11-21T21:33:14.600Z,50.73
2018-11-21T21:38:17.365Z,39.00
2018-11-21T21:43:20.138Z,46.93
2018-11-21T21:48:22.817Z,38.13
2018-11-21T21:53:25.676Z,38.30
2018-11-21T21:58:28.421Z,42.63
2018-11-21T22:03:31.130Z,40.13
2018-11-21T22:08:33.811Z,44.73
2018-11-21T22:13:36.536Z,37.30
2018-11-21T22:18:39.209Z,37.27
2018-11-21T22:23:41.869Z,36.40
2018-11-21T22:28:44.566Z,39.73
2018-11-21T22:33:47.320Z,42.60
2018-11-21T22:38:49.996Z,39.13
2018-11-21T22:43:52.750Z,37.30
2018-11-21T22:48:55.449Z,35.53
2018-11-21T22:53:58.119Z,35.40
2018-11-21T22:59:00.937Z,41.43
2018-11-21T23:04:04.003Z,41.17
2018-11-21T23:09:08.863Z,37.57
2018-11-21T23:14:11.601Z,33.97
2018-11-21T23:19:14.293Z,37.67
2018-11-21T23:24:16.946Z,35.50
2018-11-21T23:29:19.669Z,33.93
2018-11-21T23:34:22.614Z,34.83
2018-11-21T23:39:25.246Z,39.07
2018-11-21T23:44:47.403Z,37.37
2018-11-21T23:50:11.056Z,31.40
2018-11-21T23:55:33.196Z,41.83
